Nhulunbuy, Northern Territory

6:37 AM CST on September 02, 2014 (GMT +0930)
Gove | Change Station
CLOSE
Current Station
Airport
Location: Gove,
Elevation: 190 ft
Nearby Weather Stations

Elev 190 ft 12.27 °S, 136.82 °E | Updated 7 minutes ago

Partly Cloudy
Partly Cloudy
59 °F
Feels Like 59 °F
N
0
Wind Variable Wind from North

Today
High -- | Low -- °F
--% Chance of Precip.
Yesterday
High -- | Low -- °F
Precip. -- in
6:26 AM 6:19 PM
Waxing Crescent, 44% visible
Pressure 29.95 in
Visibility 1.0 miles
Clouds Few 30000 ft
Dew Point 57 °F
Humidity 94%
Rainfall 0.00 in
Snow Depth Not available.
UV 0 out of 12
Pollen Not available.
Air Quality Not available.
Flu Activity Not available.
SPECI YPGV 012100Z 00000KT 1600 0800NW PRFG FEW300 15/14 Q1014

More Conditions Fewer Conditions

Pressure 29.95 in
Visibility 1.0 miles
Clouds Few 30000 ft
Dew Point 57 °F
Humidity 94%
Rainfall 0.00 in
Snow Depth Not available.
UV 0 out of 12
Pollen Not available.
Air Quality Not available.
Flu Activity Not available.
SPECI YPGV 012100Z 00000KT 1600 0800NW PRFG FEW300 15/14 Q1014

More Conditions Fewer Conditions

10-Day Weather Forecast

Almanac

Astronomy

Sep. 02, 2014 Rise Set
Actual Time 6:26 AM CST 6:19 PM CST
Civil Twilight 6:05 AM CST 6:40 PM CST
Nautical Twilight 5:40 AM CST 7:05 PM CST
Astronomical Twilight 5:15 AM CST 7:29 PM CST
Moon 11:38 AM CST (9/2) No Moon Set
Length of Visible Light 12h 35m
Length of Day
11h 52m
Tomorrow will be 0m 38s longer.
Waxing Crescent, 44% of the Moon is Illuminated
Sep 1
Waxing Crescent
Sep 2
First Quarter
Sep 8
Full
Sep 15
Last Quarter
Sep 24
New

Yesterday's Extremes

Country Highs Country Lows

Community

WunderPhotos

Upload Photos

1,749,407 photos uploaded!

WunderBlogs® & News

Nearby

Snow Depth

Not available.

Earthquake Activity

City Distance Mag. Time & Date
No recent earthquake activity has been reported nearby.
Minimum magnitude displayed is 2.5.

Coastal Water Temperatures

Place Temperature
No Stations Reporting

Nearby Weather Stations